sensor_id;sensor_type;location;lat;lon;timestamp;pressure;altitude;pressure_sealevel;temperature;humidity
80128;BME280;69440;52.118;5.408;2023-07-31T00:02:08;101097.88;;;15.63;100.00
80128;BME280;69440;52.118;5.408;2023-07-31T00:04:34;101080.91;;;15.72;100.00
80128;BME280;69440;52.118;5.408;2023-07-31T00:07:01;101093.50;;;15.73;100.00
80128;BME280;69440;52.118;5.408;2023-07-31T00:09:30;101085.13;;;15.76;100.00
80128;BME280;69440;52.118;5.408;2023-07-31T00:11:56;101077.63;;;15.79;100.00
80128;BME280;69440;52.118;5.408;2023-07-31T00:14:23;101070.72;;;15.75;100.00
80128;BME280;69440;52.118;5.408;2023-07-31T00:16:50;101066.28;;;15.86;100.00
80128;BME280;69440;52.118;5.408;2023-07-31T00:19:18;101051.50;;;15.90;100.00
80128;BME280;69440;52.118;5.408;2023-07-31T00:21:44;101050.44;;;15.92;100.00
80128;BME280;69440;52.118;5.408;2023-07-31T00:24:11;101053.72;;;15.84;100.00
80128;BME280;69440;52.118;5.408;2023-07-31T00:26:37;101045.84;;;15.81;100.00
80128;BME280;69440;52.118;5.408;2023-07-31T00:29:04;101053.97;;;15.81;100.00
80128;BME280;69440;52.118;5.408;2023-07-31T00:31:31;101055.69;;;15.82;100.00
80128;BME280;69440;52.118;5.408;2023-07-31T00:33:57;101057.41;;;15.83;100.00
80128;BME280;69440;52.118;5.408;2023-07-31T00:36:24;101043.75;;;15.85;100.00
80128;BME280;69440;52.118;5.408;2023-07-31T00:38:50;101043.84;;;15.72;100.00
80128;BME280;69440;52.118;5.408;2023-07-31T00:41:17;101046.94;;;15.79;100.00
80128;BME280;69440;52.118;5.408;2023-07-31T00:43:43;101043.63;;;15.87;100.00
80128;BME280;69440;52.118;5.408;2023-07-31T00:46:10;101041.41;;;15.92;100.00
80128;BME280;69440;52.118;5.408;2023-07-31T00:48:37;101032.53;;;15.90;100.00
80128;BME280;69440;52.118;5.408;2023-07-31T00:51:04;101041.31;;;15.93;100.00
80128;BME280;69440;52.118;5.408;2023-07-31T00:53:30;101033.44;;;16.01;100.00
80128;BME280;69440;52.118;5.408;2023-07-31T00:55:57;101037.75;;;16.04;100.00
80128;BME280;69440;52.118;5.408;2023-07-31T00:58:24;101041.81;;;16.09;100.00
80128;BME280;69440;52.118;5.408;2023-07-31T01:00:50;101031.59;;;16.13;100.00
80128;BME280;69440;52.118;5.408;2023-07-31T01:03:17;101025.06;;;16.15;100.00
80128;BME280;69440;52.118;5.408;2023-07-31T01:08:54;101032.84;;;16.20;100.00
80128;BME280;69440;52.118;5.408;2023-07-31T01:11:41;101022.72;;;16.22;100.00
80128;BME280;69440;52.118;5.408;2023-07-31T01:14:09;101021.97;;;16.20;100.00
80128;BME280;69440;52.118;5.408;2023-07-31T01:16:35;101019.06;;;16.23;100.00
80128;BME280;69440;52.118;5.408;2023-07-31T01:19:02;101031.50;;;16.26;100.00
80128;BME280;69440;52.118;5.408;2023-07-31T01:24:23;101033.59;;;16.33;100.00
80128;BME280;69440;52.118;5.408;2023-07-31T01:27:03;101029.16;;;16.32;100.00
80128;BME280;69440;52.118;5.408;2023-07-31T01:30:00;101036.44;;;16.32;100.00
80128;BME280;69440;52.118;5.408;2023-07-31T01:32:24;101023.75;;;16.32;100.00
80128;BME280;69440;52.118;5.408;2023-07-31T01:34:52;101026.31;;;16.34;100.00
80128;BME280;69440;52.118;5.408;2023-07-31T01:37:19;101026.56;;;16.31;100.00
80128;BME280;69440;52.118;5.408;2023-07-31T01:39:46;101026.09;;;16.26;100.00
80128;BME280;69440;52.118;5.408;2023-07-31T01:42:12;101022.50;;;16.25;100.00
80128;BME280;69440;52.118;5.408;2023-07-31T01:44:40;101030.66;;;16.25;100.00
80128;BME280;69440;52.118;5.408;2023-07-31T01:47:06;101031.50;;;16.26;100.00
80128;BME280;69440;52.118;5.408;2023-07-31T01:49:33;101018.19;;;16.23;100.00
80128;BME280;69440;52.118;5.408;2023-07-31T01:51:59;101018.94;;;16.25;100.00
80128;BME280;69440;52.118;5.408;2023-07-31T01:54:26;101025.22;;;16.25;100.00
80128;BME280;69440;52.118;5.408;2023-07-31T01:56:52;101016.34;;;16.23;100.00
80128;BME280;69440;52.118;5.408;2023-07-31T01:59:19;101024.56;;;16.22;100.00
80128;BME280;69440;52.118;5.408;2023-07-31T02:01:45;101014.72;;;16.21;100.00
80128;BME280;69440;52.118;5.408;2023-07-31T02:04:12;101017.41;;;16.21;100.00
80128;BME280;69440;52.118;5.408;2023-07-31T02:06:39;101018.19;;;16.23;100.00
80128;BME280;69440;52.118;5.408;2023-07-31T02:09:06;101000.28;;;16.20;100.00
80128;BME280;69440;52.118;5.408;2023-07-31T02:11:32;101008.56;;;16.19;100.00
80128;BME280;69440;52.118;5.408;2023-07-31T02:13:59;101006.69;;;16.19;100.00
80128;BME280;69440;52.118;5.408;2023-07-31T02:16:25;100991.66;;;16.15;100.00
80128;BME280;69440;52.118;5.408;2023-07-31T02:18:52;100996.47;;;16.11;100.00
80128;BME280;69440;52.118;5.408;2023-07-31T02:21:18;100978.59;;;16.09;100.00
80128;BME280;69440;52.118;5.408;2023-07-31T02:23:45;100973.19;;;16.09;100.00
80128;BME280;69440;52.118;5.408;2023-07-31T02:26:11;100976.63;;;16.11;100.00
80128;BME280;69440;52.118;5.408;2023-07-31T02:28:38;100980.44;;;16.08;100.00
80128;BME280;69440;52.118;5.408;2023-07-31T02:31:04;100978.59;;;16.09;100.00
80128;BME280;69440;52.118;5.408;2023-07-31T02:33:31;100975.63;;;16.12;100.00
80128;BME280;69440;52.118;5.408;2023-07-31T02:35:57;100978.59;;;16.09;100.00
80128;BME280;69440;52.118;5.408;2023-07-31T02:38:24;100975.16;;;16.07;100.00
80128;BME280;69440;52.118;5.408;2023-07-31T02:40:50;100973.19;;;16.09;100.00
80128;BME280;69440;52.118;5.408;2023-07-31T02:43:17;100973.91;;;16.11;100.00
80128;BME280;69440;52.118;5.408;2023-07-31T02:45:43;100976.38;;;16.14;100.00
80128;BME280;69440;52.118;5.408;2023-07-31T02:48:10;100980.19;;;16.11;100.00
80128;BME280;69440;52.118;5.408;2023-07-31T02:50:36;100985.50;;;16.13;100.00
80128;BME280;69440;52.118;5.408;2023-07-31T02:53:03;100970.94;;;16.14;100.00
80128;BME280;69440;52.118;5.408;2023-07-31T02:55:29;100968.38;;;16.12;100.00
80128;BME280;69440;52.118;5.408;2023-07-31T02:57:56;100965.91;;;16.09;100.00
80128;BME280;69440;52.118;5.408;2023-07-31T03:00:22;100967.88;;;16.07;100.00
80128;BME280;69440;52.118;5.408;2023-07-31T03:02:49;100958.75;;;16.08;100.00
80128;BME280;69440;52.118;5.408;2023-07-31T03:05:15;100964.44;;;16.05;100.00
80128;BME280;69440;52.118;5.408;2023-07-31T03:07:42;100967.00;;;16.07;100.00
80128;BME280;69440;52.118;5.408;2023-07-31T03:10:09;100961.72;;;16.05;100.00
80128;BME280;69440;52.118;5.408;2023-07-31T03:12:35;100966.16;;;16.06;100.00
80128;BME280;69440;52.118;5.408;2023-07-31T03:15:02;100960.97;;;16.03;100.00
80128;BME280;69440;52.118;5.408;2023-07-31T03:17:28;100959.25;;;16.02;100.00
80128;BME280;69440;52.118;5.408;2023-07-31T03:19:54;100963.81;;;16.02;100.00
80128;BME280;69440;52.118;5.408;2023-07-31T03:22:21;100968.00;;;16.06;100.00
80128;BME280;69440;52.118;5.408;2023-07-31T03:24:47;100960.72;;;15.95;100.00
80128;BME280;69440;52.118;5.408;2023-07-31T03:27:14;100958.63;;;15.99;100.00
80128;BME280;69440;52.118;5.408;2023-07-31T03:29:40;100953.94;;;16.01;100.00
80128;BME280;69440;52.118;5.408;2023-07-31T03:32:07;100957.03;;;15.96;100.00
80128;BME280;69440;52.118;5.408;2023-07-31T03:34:33;100963.44;;;15.95;100.00
80128;BME280;69440;52.118;5.408;2023-07-31T03:37:00;100958.75;;;15.97;100.00
80128;BME280;69440;52.118;5.408;2023-07-31T03:39:26;100951.88;;;15.93;100.00
80128;BME280;69440;52.118;5.408;2023-07-31T03:41:53;100956.50;;;15.91;100.00
80128;BME280;69440;52.118;5.408;2023-07-31T03:44:19;100955.03;;;15.87;100.00
80128;BME280;69440;52.118;5.408;2023-07-31T03:46:46;100959.47;;;15.88;100.00
80128;BME280;69440;52.118;5.408;2023-07-31T03:49:12;100960.31;;;15.89;100.00
80128;BME280;69440;52.118;5.408;2023-07-31T03:51:39;100953.44;;;15.84;100.00
80128;BME280;69440;52.118;5.408;2023-07-31T03:54:05;100949.97;;;15.82;100.00
80128;BME280;69440;52.118;5.408;2023-07-31T03:56:34;100958.84;;;15.84;100.00
80128;BME280;69440;52.118;5.408;2023-07-31T03:59:01;100951.69;;;15.83;100.00
80128;BME280;69440;52.118;5.408;2023-07-31T04:01:28;100945.06;;;15.88;100.00
80128;BME280;69440;52.118;5.408;2023-07-31T04:03:54;100953.44;;;15.84;100.00
80128;BME280;69440;52.118;5.408;2023-07-31T04:06:21;100949.97;;;15.82;100.00
80128;BME280;69440;52.118;5.408;2023-07-31T04:08:47;100944.69;;;15.81;100.00
80128;BME280;69440;52.118;5.408;2023-07-31T04:11:14;100946.53;;;15.80;100.00
80128;BME280;69440;52.118;5.408;2023-07-31T04:13:40;100942.22;;;15.78;100.00
80128;BME280;69440;52.118;5.408;2023-07-31T04:16:07;100930.75;;;15.74;100.00
80128;BME280;69440;52.118;5.408;2023-07-31T04:18:33;100929.41;;;15.69;100.00
80128;BME280;69440;52.118;5.408;2023-07-31T04:20:59;100913.50;;;15.64;100.00
80128;BME280;69440;52.118;5.408;2023-07-31T04:23:28;100904.72;;;15.61;100.00
80128;BME280;69440;52.118;5.408;2023-07-31T04:25:54;100907.34;;;15.62;100.00
80128;BME280;69440;52.118;5.408;2023-07-31T04:28:21;100908.72;;;15.68;100.00
80128;BME280;69440;52.118;5.408;2023-07-31T04:30:47;100911.13;;;15.60;100.00
80128;BME280;69440;52.118;5.408;2023-07-31T04:33:16;100905.63;;;15.61;100.00
80128;BME280;69440;52.118;5.408;2023-07-31T04:35:51;100918.19;;;15.62;100.00
80128;BME280;69440;52.118;5.408;2023-07-31T04:38:21;100920.03;;;15.62;100.00
80128;BME280;69440;52.118;5.408;2023-07-31T04:40:48;100918.06;;;15.64;100.00
80128;BME280;69440;52.118;5.408;2023-07-31T04:43:15;100920.25;;;15.59;100.00
80128;BME280;69440;52.118;5.408;2023-07-31T04:45:48;100922.09;;;15.58;100.00
80128;BME280;69440;52.118;5.408;2023-07-31T04:48:14;100919.47;;;15.57;100.00
80128;BME280;69440;52.118;5.408;2023-07-31T04:50:41;100919.25;;;15.60;100.00
80128;BME280;69440;52.118;5.408;2023-07-31T04:53:07;100909.28;;;15.60;100.00
80128;BME280;69440;52.118;5.408;2023-07-31T04:55:34;100915.69;;;15.59;100.00
80128;BME280;69440;52.118;5.408;2023-07-31T04:58:00;100914.63;;;15.62;100.00
80128;BME280;69440;52.118;5.408;2023-07-31T05:00:27;100909.94;;;15.64;100.00
80128;BME280;69440;52.118;5.408;2023-07-31T05:02:54;100898.56;;;15.59;100.00
80128;BME280;69440;52.118;5.408;2023-07-31T05:05:20;100895.00;;;15.58;100.00
80128;BME280;69440;52.118;5.408;2023-07-31T05:07:47;100894.00;;;15.59;100.00
80128;BME280;69440;52.118;5.408;2023-07-31T05:10:13;100885.88;;;15.59;100.00
80128;BME280;69440;52.118;5.408;2023-07-31T05:12:40;100900.69;;;15.66;100.00
80128;BME280;69440;52.118;5.408;2023-07-31T05:15:07;100897.25;;;15.64;100.00
80128;BME280;69440;52.118;5.408;2023-07-31T05:17:33;100891.97;;;15.63;100.00
80128;BME280;69440;52.118;5.408;2023-07-31T05:20:00;100897.00;;;15.67;100.00
80128;BME280;69440;52.118;5.408;2023-07-31T05:22:26;100893.94;;;15.72;100.00
80128;BME280;69440;52.118;5.408;2023-07-31T05:24:54;100895.53;;;15.74;100.00
80128;BME280;69440;52.118;5.408;2023-07-31T05:27:20;100892.06;;;15.72;100.00
80128;BME280;69440;52.118;5.408;2023-07-31T05:29:47;100887.28;;;15.65;100.00
80128;BME280;69440;52.118;5.408;2023-07-31T05:32:13;100883.94;;;15.61;100.00
80128;BME280;69440;52.118;5.408;2023-07-31T05:34:40;100891.53;;;15.56;100.00
80128;BME280;69440;52.118;5.408;2023-07-31T05:37:07;100879.09;;;15.53;100.00
80128;BME280;69440;52.118;5.408;2023-07-31T05:39:33;100874.78;;;15.51;100.00
80128;BME280;69440;52.118;5.408;2023-07-31T05:41:59;100868.13;;;15.55;100.00
80128;BME280;69440;52.118;5.408;2023-07-31T05:44:26;100867.25;;;15.54;100.00
80128;BME280;69440;52.118;5.408;2023-07-31T05:46:52;100866.66;;;15.51;100.00
80128;BME280;69440;52.118;5.408;2023-07-31T05:49:19;100867.50;;;15.51;100.00
80128;BME280;69440;52.118;5.408;2023-07-31T05:51:45;100848.41;;;15.53;100.00
80128;BME280;69440;52.118;5.408;2023-07-31T05:54:12;100856.41;;;15.54;100.00
80128;BME280;69440;52.118;5.408;2023-07-31T05:56:38;100853.97;;;15.51;100.00
80128;BME280;69440;52.118;5.408;2023-07-31T05:59:05;100844.97;;;15.51;100.00
80128;BME280;69440;52.118;5.408;2023-07-31T06:01:31;100846.31;;;15.57;100.00
80128;BME280;69440;52.118;5.408;2023-07-31T06:03:58;100844.47;;;15.57;100.00
80128;BME280;69440;52.118;5.408;2023-07-31T06:06:25;100846.31;;;15.57;100.00
80128;BME280;69440;52.118;5.408;2023-07-31T06:08:51;100843.75;;;15.55;100.00
80128;BME280;69440;52.118;5.408;2023-07-31T06:11:20;100839.06;;;15.57;100.00
80128;BME280;69440;52.118;5.408;2023-07-31T06:13:47;100842.53;;;15.59;100.00
80128;BME280;69440;52.118;5.408;2023-07-31T06:16:15;100844.59;;;15.56;100.00
80128;BME280;69440;52.118;5.408;2023-07-31T06:18:42;100836.59;;;15.54;100.00
80128;BME280;69440;52.118;5.408;2023-07-31T06:21:09;100831.78;;;15.58;100.00
80128;BME280;69440;52.118;5.408;2023-07-31T06:23:36;100826.38;;;15.58;100.00
80128;BME280;69440;52.118;5.408;2023-07-31T06:26:02;100826.63;;;15.54;100.00
80128;BME280;69440;52.118;5.408;2023-07-31T06:28:29;100833.88;;;15.54;100.00
80128;BME280;69440;52.118;5.408;2023-07-31T06:30:58;100821.06;;;15.56;100.00
80128;BME280;69440;52.118;5.408;2023-07-31T06:33:25;100817.63;;;15.54;100.00
80128;BME280;69440;52.118;5.408;2023-07-31T06:35:52;100812.81;;;15.58;100.00
80128;BME280;69440;52.118;5.408;2023-07-31T06:38:22;100825.94;;;15.64;100.00
80128;BME280;69440;52.118;5.408;2023-07-31T06:40:49;100809.69;;;15.64;100.00
80128;BME280;69440;52.118;5.408;2023-07-31T06:43:16;100808.81;;;15.63;100.00
80128;BME280;69440;52.118;5.408;2023-07-31T06:45:42;100801.69;;;15.62;100.00
80128;BME280;69440;52.118;5.408;2023-07-31T06:48:09;100810.66;;;15.63;100.00
80128;BME280;69440;52.118;5.408;2023-07-31T06:50:36;100799.84;;;15.63;100.00
80128;BME280;69440;52.118;5.408;2023-07-31T06:53:03;100792.06;;;15.69;100.00
80128;BME280;69440;52.118;5.408;2023-07-31T06:55:29;100799.34;;;15.69;100.00
80128;BME280;69440;52.118;5.408;2023-07-31T06:57:56;100791.06;;;15.70;100.00
80128;BME280;69440;52.118;5.408;2023-07-31T07:00:23;100789.84;;;15.74;100.00
80128;BME280;69440;52.118;5.408;2023-07-31T07:02:50;100797.47;;;15.80;100.00
80128;BME280;69440;52.118;5.408;2023-07-31T07:05:17;100790.91;;;15.83;100.00
80128;BME280;69440;52.118;5.408;2023-07-31T07:07:44;100788.09;;;15.84;100.00
80128;BME280;69440;52.118;5.408;2023-07-31T07:10:10;100791.06;;;15.81;100.00
80128;BME280;69440;52.118;5.408;2023-07-31T07:12:37;100786.09;;;15.87;100.00
80128;BME280;69440;52.118;5.408;2023-07-31T07:15:04;100787.72;;;15.89;100.00
80128;BME280;69440;52.118;5.408;2023-07-31T07:17:31;100775.00;;;15.90;100.00
80128;BME280;69440;52.118;5.408;2023-07-31T07:20:00;100776.63;;;15.92;100.00
80128;BME280;69440;52.118;5.408;2023-07-31T07:22:27;100781.06;;;15.93;100.00
80128;BME280;69440;52.118;5.408;2023-07-31T07:24:54;100779.09;;;15.95;100.00
80128;BME280;69440;52.118;5.408;2023-07-31T07:27:20;100787.97;;;15.97;100.00
80128;BME280;69440;52.118;5.408;2023-07-31T07:29:47;100779.97;;;15.96;100.00
80128;BME280;69440;52.118;5.408;2023-07-31T07:32:16;100776.00;;;16.00;100.00
80128;BME280;69440;52.118;5.408;2023-07-31T07:34:43;100787.44;;;16.03;100.00
80128;BME280;69440;52.118;5.408;2023-07-31T07:37:10;100787.19;;;16.06;100.00
80128;BME280;69440;52.118;5.408;2023-07-31T07:39:37;100778.19;;;16.06;100.00
80128;BME280;69440;52.118;5.408;2023-07-31T07:42:04;100784.22;;;16.09;100.00
80128;BME280;69440;52.118;5.408;2023-07-31T07:44:30;100778.53;;;16.12;100.00
80128;BME280;69440;52.118;5.408;2023-07-31T07:46:57;100775.81;;;16.12;100.00
80128;BME280;69440;52.118;5.408;2023-07-31T07:49:23;100769.41;;;16.13;100.00
80128;BME280;69440;52.118;5.408;2023-07-31T07:51:50;100772.72;;;16.17;100.00
80128;BME280;69440;52.118;5.408;2023-07-31T07:54:16;100775.31;;;16.19;100.00
80128;BME280;69440;52.118;5.408;2023-07-31T07:56:43;100770.25;;;16.25;100.00
80128;BME280;69440;52.118;5.408;2023-07-31T07:59:09;100769.28;;;16.26;100.00
80128;BME280;69440;52.118;5.408;2023-07-31T08:01:36;100763.72;;;16.28;100.00
80128;BME280;69440;52.118;5.408;2023-07-31T08:04:02;100765.31;;;16.30;100.00
80128;BME280;69440;52.118;5.408;2023-07-31T08:06:29;100758.16;;;16.29;100.00
80128;BME280;69440;52.118;5.408;2023-07-31T08:08:56;100757.44;;;16.27;100.00
80128;BME280;69440;52.118;5.408;2023-07-31T08:11:23;100752.75;;;16.29;100.00
80128;BME280;69440;52.118;5.408;2023-07-31T08:13:49;100766.28;;;16.29;100.00
80128;BME280;69440;52.118;5.408;2023-07-31T08:16:16;100750.63;;;16.33;100.00
80128;BME280;69440;52.118;5.408;2023-07-31T08:18:42;100751.47;;;16.33;100.00
80128;BME280;69440;52.118;5.408;2023-07-31T08:21:09;100750.22;;;16.37;100.00
80128;BME280;69440;52.118;5.408;2023-07-31T08:23:36;100736.13;;;16.43;100.00
80128;BME280;69440;52.118;5.408;2023-07-31T08:26:02;100742.03;;;16.49;100.00
80128;BME280;69440;52.118;5.408;2023-07-31T08:28:29;100749.31;;;16.48;100.00
80128;BME280;69440;52.118;5.408;2023-07-31T08:30:55;100741.03;;;16.50;100.00
80128;BME280;69440;52.118;5.408;2023-07-31T08:33:22;100742.88;;;16.49;100.00
80128;BME280;69440;52.118;5.408;2023-07-31T08:35:48;100731.91;;;16.51;100.00
80128;BME280;69440;52.118;5.408;2023-07-31T08:38:15;100740.53;;;16.56;100.00
80128;BME280;69440;52.118;5.408;2023-07-31T08:40:41;100738.56;;;16.58;100.00
80128;BME280;69440;52.118;5.408;2023-07-31T08:43:08;100738.78;;;16.66;100.00
80128;BME280;69440;52.118;5.408;2023-07-31T08:45:35;100731.88;;;16.62;100.00
80128;BME280;69440;52.118;5.408;2023-07-31T08:48:01;100741.50;;;16.66;100.00
80128;BME280;69440;52.118;5.408;2023-07-31T08:50:29;100734.31;;;16.65;100.00
80128;BME280;69440;52.118;5.408;2023-07-31T08:52:55;100738.78;;;16.66;100.00
80128;BME280;69440;52.118;5.408;2023-07-31T08:55:24;100737.97;;;16.75;100.00
80128;BME280;69440;52.118;5.408;2023-07-31T08:57:52;100736.84;;;16.77;100.00
80128;BME280;69440;52.118;5.408;2023-07-31T09:00:20;100739.81;;;16.74;100.00
80128;BME280;69440;52.118;5.408;2023-07-31T09:03:00;100735.25;;;16.75;100.00
80128;BME280;69440;52.118;5.408;2023-07-31T09:05:30;100736.84;;;16.77;100.00
80128;BME280;69440;52.118;5.408;2023-07-31T09:07:57;100747.19;;;16.84;100.00
80128;BME280;69440;52.118;5.408;2023-07-31T09:10:24;100739.78;;;16.86;100.00
80128;BME280;69440;52.118;5.408;2023-07-31T09:12:51;100734.22;;;16.87;100.00
80128;BME280;69440;52.118;5.408;2023-07-31T09:15:18;100739.66;;;16.87;100.00
80128;BME280;69440;52.118;5.408;2023-07-31T09:18:03;100742.50;;;16.86;100.00
80128;BME280;69440;52.118;5.408;2023-07-31T09:20:30;100731.78;;;16.84;100.00
80128;BME280;69440;52.118;5.408;2023-07-31T09:23:05;100723.50;;;16.86;100.00
80128;BME280;69440;52.118;5.408;2023-07-31T09:25:32;100726.44;;;16.83;100.00
80128;BME280;69440;52.118;5.408;2023-07-31T09:28:04;100728.44;;;16.81;100.00
80128;BME280;69440;52.118;5.408;2023-07-31T09:30:44;100720.44;;;16.79;100.00
80128;BME280;69440;52.118;5.408;2023-07-31T09:33:11;100722.41;;;16.77;100.00
80128;BME280;69440;52.118;5.408;2023-07-31T09:35:38;100721.00;;;16.83;100.00
80128;BME280;69440;52.118;5.408;2023-07-31T09:38:09;100715.34;;;16.86;100.00
80128;BME280;69440;52.118;5.408;2023-07-31T09:40:41;100720.22;;;16.92;100.00
80128;BME280;69440;52.118;5.408;2023-07-31T09:43:09;100714.41;;;16.96;100.00
80128;BME280;69440;52.118;5.408;2023-07-31T09:45:40;100712.44;;;17.08;100.00
80128;BME280;69440;52.118;5.408;2023-07-31T09:48:15;100710.31;;;17.12;100.00
80128;BME280;69440;52.118;5.408;2023-07-31T09:50:46;100706.22;;;17.17;100.00
80128;BME280;69440;52.118;5.408;2023-07-31T09:53:14;100715.69;;;17.23;100.00
80128;BME280;69440;52.118;5.408;2023-07-31T09:55:41;100722.25;;;17.20;100.00
80128;BME280;69440;52.118;5.408;2023-07-31T09:58:10;100723.75;;;17.13;100.00
80128;BME280;69440;52.118;5.408;2023-07-31T10:00:37;100712.03;;;17.13;100.00
80128;BME280;69440;52.118;5.408;2023-07-31T10:03:06;100710.06;;;17.15;100.00
80128;BME280;69440;52.118;5.408;2023-07-31T10:05:37;100712.38;;;17.19;100.00
80128;BME280;69440;52.118;5.408;2023-07-31T10:08:06;100702.69;;;17.26;100.00
80128;BME280;69440;52.118;5.408;2023-07-31T10:10:35;100705.25;;;17.28;100.00
80128;BME280;69440;52.118;5.408;2023-07-31T10:13:03;100709.81;;;17.27;100.00
80128;BME280;69440;52.118;5.408;2023-07-31T10:15:31;100722.84;;;17.33;100.00
80128;BME280;69440;52.118;5.408;2023-07-31T10:17:58;100713.00;;;17.32;100.00
80128;BME280;69440;52.118;5.408;2023-07-31T10:20:26;100710.41;;;17.31;100.00
80128;BME280;69440;52.118;5.408;2023-07-31T10:22:55;100713.00;;;17.32;100.00
80128;BME280;69440;52.118;5.408;2023-07-31T10:25:22;100715.84;;;17.31;100.00
80128;BME280;69440;52.118;5.408;2023-07-31T10:27:49;100714.13;;;17.30;100.00
80128;BME280;69440;52.118;5.408;2023-07-31T10:30:18;100726.25;;;17.26;100.00
80128;BME280;69440;52.118;5.408;2023-07-31T10:32:47;100703.81;;;17.24;100.00
80128;BME280;69440;52.118;5.408;2023-07-31T10:35:17;100712.81;;;17.24;100.00
80128;BME280;69440;52.118;5.408;2023-07-31T10:37:44;100720.56;;;17.29;100.00
80128;BME280;69440;52.118;5.408;2023-07-31T10:40:11;100713.84;;;17.33;100.00
80128;BME280;69440;52.118;5.408;2023-07-31T10:42:51;100715.56;;;17.34;100.00
80128;BME280;69440;52.118;5.408;2023-07-31T10:48:04;100713.88;;;17.43;100.00
80128;BME280;69440;52.118;5.408;2023-07-31T10:50:33;100709.91;;;17.47;100.00
80128;BME280;69440;52.118;5.408;2023-07-31T10:53:03;100707.91;;;17.49;100.00
80128;BME280;69440;52.118;5.408;2023-07-31T10:55:35;100704.19;;;17.50;100.00
80128;BME280;69440;52.118;5.408;2023-07-31T10:58:07;100711.06;;;17.54;100.00
80128;BME280;69440;52.118;5.408;2023-07-31T11:00:37;100710.78;;;17.57;100.00
80128;BME280;69440;52.118;5.408;2023-07-31T11:03:05;100704.06;;;17.61;100.00
80128;BME280;69440;52.118;5.408;2023-07-31T11:08:24;100708.66;;;17.60;100.00
80128;BME280;69440;52.118;5.408;2023-07-31T11:11:06;100704.66;;;17.64;100.00
80128;BME280;69440;52.118;5.408;2023-07-31T11:13:39;100708.38;;;17.63;100.00
80128;BME280;69440;52.118;5.408;2023-07-31T11:16:06;100709.38;;;17.62;100.00
80128;BME280;69440;52.118;5.408;2023-07-31T11:18:32;100716.53;;;17.63;100.00
80128;BME280;69440;52.118;5.408;2023-07-31T11:20:59;100709.22;;;17.64;100.00
80128;BME280;69440;52.118;5.408;2023-07-31T11:23:25;100708.97;;;17.67;100.00
80128;BME280;69440;52.118;5.408;2023-07-31T11:25:52;100700.22;;;17.63;100.00
80128;BME280;69440;52.118;5.408;2023-07-31T11:28:19;100707.94;;;17.58;100.00
80128;BME280;69440;52.118;5.408;2023-07-31T11:30:46;100701.63;;;17.58;100.00
80128;BME280;69440;52.118;5.408;2023-07-31T11:33:13;100703.22;;;17.60;100.00
80128;BME280;69440;52.118;5.408;2023-07-31T11:35:47;100698.34;;;17.64;100.00
80128;BME280;69440;52.118;5.408;2023-07-31T11:40:53;100697.78;;;17.60;100.00
80128;BME280;69440;52.118;5.408;2023-07-31T11:43:20;100698.97;;;17.67;100.00
80128;BME280;69440;52.118;5.408;2023-07-31T11:46:05;100699.53;;;17.71;100.00
80128;BME280;69440;52.118;5.408;2023-07-31T11:48:35;100699.34;;;17.63;100.00
80128;BME280;69440;52.118;5.408;2023-07-31T11:51:09;100696.78;;;17.61;100.00
80128;BME280;69440;52.118;5.408;2023-07-31T11:53:45;100710.38;;;17.61;100.00
80128;BME280;69440;52.118;5.408;2023-07-31T11:56:14;100700.91;;;17.56;100.00
80128;BME280;69440;52.118;5.408;2023-07-31T11:58:45;100698.75;;;17.50;100.00
80128;BME280;69440;52.118;5.408;2023-07-31T12:01:14;100685.19;;;17.50;100.00
80128;BME280;69440;52.118;5.408;2023-07-31T12:03:44;100684.03;;;17.52;100.00
80128;BME280;69440;52.118;5.408;2023-07-31T12:06:11;100693.19;;;17.51;100.00
80128;BME280;69440;52.118;5.408;2023-07-31T12:08:37;100690.31;;;17.53;100.00
80128;BME280;69440;52.118;5.408;2023-07-31T12:11:05;100693.63;;;17.56;100.00
80128;BME280;69440;52.118;5.408;2023-07-31T12:13:33;100692.47;;;17.59;100.00
80128;BME280;69440;52.118;5.408;2023-07-31T12:16:00;100701.94;;;17.64;100.00
80128;BME280;69440;52.118;5.408;2023-07-31T12:18:37;100684.94;;;17.72;100.00
80128;BME280;69440;52.118;5.408;2023-07-31T12:21:05;100702.13;;;17.73;100.00
80128;BME280;69440;52.118;5.408;2023-07-31T12:23:33;100694.81;;;17.73;100.00
80128;BME280;69440;52.118;5.408;2023-07-31T12:28:36;100687.66;;;17.72;100.00
80128;BME280;69440;52.118;5.408;2023-07-31T12:31:05;100682.84;;;17.76;100.00
80128;BME280;69440;52.118;5.408;2023-07-31T12:33:33;100670.22;;;17.75;100.00
80128;BME280;69440;52.118;5.408;2023-07-31T12:36:03;100669.81;;;17.79;100.00
80128;BME280;69440;52.118;5.408;2023-07-31T12:38:30;100670.53;;;17.81;100.00
80128;BME280;69440;52.118;5.408;2023-07-31T12:40:57;100656.09;;;17.81;100.00
80128;BME280;69440;52.118;5.408;2023-07-31T12:43:23;100661.66;;;17.79;100.00
80128;BME280;69440;52.118;5.408;2023-07-31T12:45:50;100663.53;;;17.79;100.00
80128;BME280;69440;52.118;5.408;2023-07-31T12:48:17;100672.69;;;17.78;100.00
80128;BME280;69440;52.118;5.408;2023-07-31T12:50:43;100670.22;;;17.75;100.00
80128;BME280;69440;52.118;5.408;2023-07-31T12:53:10;100665.06;;;17.72;100.00
80128;BME280;69440;52.118;5.408;2023-07-31T12:55:36;100666.78;;;17.73;100.00
80128;BME280;69440;52.118;5.408;2023-07-31T12:58:03;100652.19;;;17.74;100.00
80128;BME280;69440;52.118;5.408;2023-07-31T13:00:30;100650.06;;;17.77;100.00